sensor_id;sensor_type;location;lat;lon;timestamp;pressure;altitude;pressure_sealevel;temperature;humidity
3796;BME280;1913;50.660;7.834;2023-04-27T00:01:17;97385.03;;;3.17;100.00
3796;BME280;1913;50.660;7.834;2023-04-27T00:03:42;97384.66;;;3.12;100.00
3796;BME280;1913;50.660;7.834;2023-04-27T00:06:10;97380.69;;;3.00;100.00
3796;BME280;1913;50.660;7.834;2023-04-27T00:08:35;97379.50;;;2.76;100.00
3796;BME280;1913;50.660;7.834;2023-04-27T00:11:01;97382.53;;;2.72;100.00
3796;BME280;1913;50.660;7.834;2023-04-27T00:13:27;97378.09;;;2.64;100.00
3796;BME280;1913;50.660;7.834;2023-04-27T00:15:53;97378.00;;;2.56;100.00
3796;BME280;1913;50.660;7.834;2023-04-27T00:18:18;97374.34;;;2.49;100.00
3796;BME280;1913;50.660;7.834;2023-04-27T00:20:44;97372.44;;;2.51;100.00
3796;BME280;1913;50.660;7.834;2023-04-27T00:23:10;97381.31;;;2.48;100.00
3796;BME280;1913;50.660;7.834;2023-04-27T00:25:36;97371.25;;;2.45;100.00
3796;BME280;1913;50.660;7.834;2023-04-27T00:28:01;97375.19;;;2.49;100.00
3796;BME280;1913;50.660;7.834;2023-04-27T00:30:27;97374.22;;;2.50;100.00
3796;BME280;1913;50.660;7.834;2023-04-27T00:32:52;97380.31;;;2.59;100.00
3796;BME280;1913;50.660;7.834;2023-04-27T00:35:18;97379.88;;;2.63;100.00
3796;BME280;1913;50.660;7.834;2023-04-27T00:37:43;97379.44;;;2.68;100.00
3796;BME280;1913;50.660;7.834;2023-04-27T00:40:09;97382.38;;;2.73;100.00
3796;BME280;1913;50.660;7.834;2023-04-27T00:42:35;97380.41;;;2.85;100.00
3796;BME280;1913;50.660;7.834;2023-04-27T00:45:01;97370.03;;;2.85;100.00
3796;BME280;1913;50.660;7.834;2023-04-27T00:47:28;97377.66;;;2.86;100.00
3796;BME280;1913;50.660;7.834;2023-04-27T00:49:54;97379.66;;;2.93;100.00
3796;BME280;1913;50.660;7.834;2023-04-27T00:52:20;97371.47;;;2.87;100.00
3796;BME280;1913;50.660;7.834;2023-04-27T00:54:48;97374.00;;;2.97;100.00
3796;BME280;1913;50.660;7.834;2023-04-27T00:57:14;97374.69;;;2.99;100.00
3796;BME280;1913;50.660;7.834;2023-04-27T00:59:40;97383.63;;;3.05;100.00
3796;BME280;1913;50.660;7.834;2023-04-27T01:02:05;97380.56;;;3.09;100.00
3796;BME280;1913;50.660;7.834;2023-04-27T01:04:31;97384.16;;;3.08;100.00
3796;BME280;1913;50.660;7.834;2023-04-27T01:06:57;97388.38;;;3.09;100.00
3796;BME280;1913;50.660;7.834;2023-04-27T01:09:22;97389.34;;;3.08;100.00
3796;BME280;1913;50.660;7.834;2023-04-27T01:11:48;97389.50;;;3.07;100.00
3796;BME280;1913;50.660;7.834;2023-04-27T01:14:13;97387.56;;;3.09;100.00
3796;BME280;1913;50.660;7.834;2023-04-27T01:16:39;97389.56;;;2.97;100.00
3796;BME280;1913;50.660;7.834;2023-04-27T01:19:06;97394.69;;;3.07;100.00
3796;BME280;1913;50.660;7.834;2023-04-27T01:21:31;97399.78;;;2.99;100.00
3796;BME280;1913;50.660;7.834;2023-04-27T01:23:57;97394.81;;;3.05;100.00
3796;BME280;1913;50.660;7.834;2023-04-27T01:26:22;97399.81;;;3.17;100.00
3796;BME280;1913;50.660;7.834;2023-04-27T01:28:47;97391.63;;;3.11;100.00
3796;BME280;1913;50.660;7.834;2023-04-27T01:31:13;97388.00;;;3.04;100.00
3796;BME280;1913;50.660;7.834;2023-04-27T01:33:39;97391.81;;;3.10;100.00
3796;BME280;1913;50.660;7.834;2023-04-27T01:36:06;97391.66;;;2.94;100.00
3796;BME280;1913;50.660;7.834;2023-04-27T01:38:33;97396.84;;;2.94;100.00
3796;BME280;1913;50.660;7.834;2023-04-27T01:40:59;97391.94;;;2.91;100.00
3796;BME280;1913;50.660;7.834;2023-04-27T01:43:28;97391.41;;;3.05;100.00
3796;BME280;1913;50.660;7.834;2023-04-27T01:45:53;97394.69;;;3.07;100.00
3796;BME280;1913;50.660;7.834;2023-04-27T01:48:19;97388.69;;;3.06;100.00
3796;BME280;1913;50.660;7.834;2023-04-27T01:50:44;97387.56;;;2.91;100.00
3796;BME280;1913;50.660;7.834;2023-04-27T01:53:10;97396.16;;;2.92;100.00
3796;BME280;1913;50.660;7.834;2023-04-27T01:55:35;97393.66;;;3.00;100.00
3796;BME280;1913;50.660;7.834;2023-04-27T01:58:01;97385.25;;;3.06;100.00
3796;BME280;1913;50.660;7.834;2023-04-27T02:00:26;97389.50;;;3.07;100.00
3796;BME280;1913;50.660;7.834;2023-04-27T02:02:52;97384.22;;;3.17;100.00
3796;BME280;1913;50.660;7.834;2023-04-27T02:05:18;97386.81;;;3.17;100.00
3796;BME280;1913;50.660;7.834;2023-04-27T02:07:44;97386.41;;;3.03;100.00
3796;BME280;1913;50.660;7.834;2023-04-27T02:10:10;97390.31;;;3.07;100.00
3796;BME280;1913;50.660;7.834;2023-04-27T02:12:36;97393.72;;;3.08;100.00
3796;BME280;1913;50.660;7.834;2023-04-27T02:15:01;97387.63;;;3.17;100.00
3796;BME280;1913;50.660;7.834;2023-04-27T02:17:27;97402.63;;;3.05;100.00
3796;BME280;1913;50.660;7.834;2023-04-27T02:19:53;97405.66;;;3.19;100.00
3796;BME280;1913;50.660;7.834;2023-04-27T02:22:19;97407.28;;;3.20;100.00
3796;BME280;1913;50.660;7.834;2023-04-27T02:24:45;97407.16;;;3.21;100.00
3796;BME280;1913;50.660;7.834;2023-04-27T02:27:10;97413.81;;;3.24;100.00
3796;BME280;1913;50.660;7.834;2023-04-27T02:29:36;97409.44;;;3.24;100.00
3796;BME280;1913;50.660;7.834;2023-04-27T02:32:05;97413.53;;;3.09;100.00
3796;BME280;1913;50.660;7.834;2023-04-27T02:34:30;97407.91;;;3.14;100.00
3796;BME280;1913;50.660;7.834;2023-04-27T02:36:56;97411.53;;;3.21;100.00
3796;BME280;1913;50.660;7.834;2023-04-27T02:39:21;97410.63;;;3.12;100.00
3796;BME280;1913;50.660;7.834;2023-04-27T02:41:46;97411.38;;;3.22;100.00
3796;BME280;1913;50.660;7.834;2023-04-27T02:44:12;97410.59;;;3.30;100.00
3796;BME280;1913;50.660;7.834;2023-04-27T02:46:37;97410.09;;;3.26;100.00
3796;BME280;1913;50.660;7.834;2023-04-27T02:49:03;97401.44;;;3.18;100.00
3796;BME280;1913;50.660;7.834;2023-04-27T02:51:28;97407.16;;;3.21;100.00
3796;BME280;1913;50.660;7.834;2023-04-27T02:53:54;97398.03;;;3.17;100.00
3796;BME280;1913;50.660;7.834;2023-04-27T02:56:20;97399.59;;;3.10;100.00
3796;BME280;1913;50.660;7.834;2023-04-27T02:58:45;97405.66;;;3.01;100.00
3796;BME280;1913;50.660;7.834;2023-04-27T03:01:13;97408.31;;;3.09;100.00
3796;BME280;1913;50.660;7.834;2023-04-27T03:03:39;97404.56;;;3.03;100.00
3796;BME280;1913;50.660;7.834;2023-04-27T03:06:05;97408.44;;;2.99;100.00
3796;BME280;1913;50.660;7.834;2023-04-27T03:08:31;97402.34;;;2.91;100.00
3796;BME280;1913;50.660;7.834;2023-04-27T03:10:56;97395.97;;;2.85;100.00
3796;BME280;1913;50.660;7.834;2023-04-27T03:13:22;97397.13;;;2.73;100.00
3796;BME280;1913;50.660;7.834;2023-04-27T03:15:48;97394.47;;;2.64;100.00
3796;BME280;1913;50.660;7.834;2023-04-27T03:18:13;97397.19;;;2.45;100.00
3796;BME280;1913;50.660;7.834;2023-04-27T03:20:38;97383.63;;;2.33;100.00
3796;BME280;1913;50.660;7.834;2023-04-27T03:23:04;97393.50;;;2.20;100.00
3796;BME280;1913;50.660;7.834;2023-04-27T03:25:29;97396.28;;;2.09;100.00
3796;BME280;1913;50.660;7.834;2023-04-27T03:27:55;97396.81;;;2.12;100.00
3796;BME280;1913;50.660;7.834;2023-04-27T03:30:20;97388.97;;;2.04;100.00
3796;BME280;1913;50.660;7.834;2023-04-27T03:32:46;97387.25;;;2.13;100.00
3796;BME280;1913;50.660;7.834;2023-04-27T03:35:11;97387.69;;;2.08;100.00
3796;BME280;1913;50.660;7.834;2023-04-27T03:37:37;97395.03;;;2.13;100.00
3796;BME280;1913;50.660;7.834;2023-04-27T03:40:02;97399.22;;;2.24;100.00
3796;BME280;1913;50.660;7.834;2023-04-27T03:42:31;97398.69;;;2.20;100.00
3796;BME280;1913;50.660;7.834;2023-04-27T03:44:57;97404.94;;;2.27;100.00
3796;BME280;1913;50.660;7.834;2023-04-27T03:47:22;97399.75;;;2.27;100.00
3796;BME280;1913;50.660;7.834;2023-04-27T03:49:48;97405.03;;;2.35;100.00
3796;BME280;1913;50.660;7.834;2023-04-27T03:52:13;97400.66;;;2.36;100.00
3796;BME280;1913;50.660;7.834;2023-04-27T03:54:39;97397.34;;;2.44;100.00
3796;BME280;1913;50.660;7.834;2023-04-27T03:57:05;97400.63;;;2.46;100.00
3796;BME280;1913;50.660;7.834;2023-04-27T03:59:30;97407.28;;;2.48;100.00
3796;BME280;1913;50.660;7.834;2023-04-27T04:01:56;97402.81;;;2.40;100.00
3796;BME280;1913;50.660;7.834;2023-04-27T04:04:22;97404.41;;;2.24;100.00
3796;BME280;1913;50.660;7.834;2023-04-27T04:06:47;97398.19;;;2.34;100.00
3796;BME280;1913;50.660;7.834;2023-04-27T04:09:13;97398.34;;;2.33;100.00
3796;BME280;1913;50.660;7.834;2023-04-27T04:11:38;97403.91;;;2.38;100.00
3796;BME280;1913;50.660;7.834;2023-04-27T04:14:04;97398.81;;;2.28;100.00
3796;BME280;1913;50.660;7.834;2023-04-27T04:16:29;97400.28;;;2.31;100.00
3796;BME280;1913;50.660;7.834;2023-04-27T04:18:57;97401.81;;;2.24;100.00
3796;BME280;1913;50.660;7.834;2023-04-27T04:21:22;97407.41;;;2.29;100.00
3796;BME280;1913;50.660;7.834;2023-04-27T04:23:48;97406.19;;;2.23;100.00
3796;BME280;1913;50.660;7.834;2023-04-27T04:26:13;97404.56;;;2.22;100.00
3796;BME280;1913;50.660;7.834;2023-04-27T04:28:39;97412.25;;;2.14;100.00
3796;BME280;1913;50.660;7.834;2023-04-27T04:31:04;97404.41;;;2.24;100.00
3796;BME280;1913;50.660;7.834;2023-04-27T04:33:30;97412.09;;;2.15;100.00
3796;BME280;1913;50.660;7.834;2023-04-27T04:35:56;97412.91;;;2.16;100.00
3796;BME280;1913;50.660;7.834;2023-04-27T04:38:22;97422.03;;;2.20;100.00
3796;BME280;1913;50.660;7.834;2023-04-27T04:40:48;97415.66;;;2.14;100.00
3796;BME280;1913;50.660;7.834;2023-04-27T04:43:14;97424.78;;;2.19;100.00
3796;BME280;1913;50.660;7.834;2023-04-27T04:45:40;97421.75;;;2.23;100.00
3796;BME280;1913;50.660;7.834;2023-04-27T04:48:06;97421.19;;;2.29;100.00
3796;BME280;1913;50.660;7.834;2023-04-27T04:50:32;97428.22;;;2.37;100.00
3796;BME280;1913;50.660;7.834;2023-04-27T04:52:58;97423.50;;;2.50;100.00
3796;BME280;1913;50.660;7.834;2023-04-27T04:55:25;97420.94;;;2.68;100.00
3796;BME280;1913;50.660;7.834;2023-04-27T04:57:51;97420.56;;;2.81;100.00
3796;BME280;1913;50.660;7.834;2023-04-27T05:00:17;97420.97;;;2.86;100.00
3796;BME280;1913;50.660;7.834;2023-04-27T05:02:42;97428.69;;;2.96;100.00
3796;BME280;1913;50.660;7.834;2023-04-27T05:05:08;97433.47;;;3.08;100.00
3796;BME280;1913;50.660;7.834;2023-04-27T05:07:34;97437.94;;;3.16;100.00
3796;BME280;1913;50.660;7.834;2023-04-27T05:09:59;97436.75;;;3.28;100.00
3796;BME280;1913;50.660;7.834;2023-04-27T05:12:25;97440.72;;;3.41;100.00
3796;BME280;1913;50.660;7.834;2023-04-27T05:14:51;97432.53;;;3.53;100.00
3796;BME280;1913;50.660;7.834;2023-04-27T05:17:17;97434.59;;;3.68;100.00
3796;BME280;1913;50.660;7.834;2023-04-27T05:19:42;97435.84;;;3.90;100.00
3796;BME280;1913;50.660;7.834;2023-04-27T05:22:08;97439.28;;;4.24;100.00
3796;BME280;1913;50.660;7.834;2023-04-27T05:24:34;97436.41;;;4.44;100.00
3796;BME280;1913;50.660;7.834;2023-04-27T05:26:59;97435.66;;;4.60;100.00
3796;BME280;1913;50.660;7.834;2023-04-27T05:29:25;97436.66;;;4.67;100.00
3796;BME280;1913;50.660;7.834;2023-04-27T05:31:51;97441.13;;;5.07;100.00
3796;BME280;1913;50.660;7.834;2023-04-27T05:34:18;97440.63;;;5.61;100.00
3796;BME280;1913;50.660;7.834;2023-04-27T05:36:43;97448.25;;;5.87;100.00
3796;BME280;1913;50.660;7.834;2023-04-27T05:39:08;97450.34;;;6.16;100.00
3796;BME280;1913;50.660;7.834;2023-04-27T05:41:34;97449.00;;;6.67;100.00
3796;BME280;1913;50.660;7.834;2023-04-27T05:43:59;97451.06;;;6.72;100.00
3796;BME280;1913;50.660;7.834;2023-04-27T05:46:25;97455.41;;;6.88;100.00
3796;BME280;1913;50.660;7.834;2023-04-27T05:48:50;97456.78;;;7.30;100.00
3796;BME280;1913;50.660;7.834;2023-04-27T05:51:15;97455.41;;;7.57;100.00
3796;BME280;1913;50.660;7.834;2023-04-27T05:53:41;97459.81;;;7.56;100.00
3796;BME280;1913;50.660;7.834;2023-04-27T05:56:07;97456.28;;;7.87;100.00
3796;BME280;1913;50.660;7.834;2023-04-27T05:58:33;97464.09;;;8.54;100.00
3796;BME280;1913;50.660;7.834;2023-04-27T06:01:02;97467.38;;;9.14;100.00
3796;BME280;1913;50.660;7.834;2023-04-27T06:03:28;97480.72;;;9.83;95.40
3796;BME280;1913;50.660;7.834;2023-04-27T06:05:58;97477.25;;;10.04;84.42
3796;BME280;1913;50.660;7.834;2023-04-27T06:08:25;97476.41;;;10.60;76.88
3796;BME280;1913;50.660;7.834;2023-04-27T06:10:51;97474.47;;;10.95;60.51
3796;BME280;1913;50.660;7.834;2023-04-27T06:13:17;97482.09;;;10.77;55.19
3796;BME280;1913;50.660;7.834;2023-04-27T06:15:42;97485.72;;;10.06;54.31
3796;BME280;1913;50.660;7.834;2023-04-27T06:18:07;97486.31;;;10.30;56.86
3796;BME280;1913;50.660;7.834;2023-04-27T06:20:33;97493.53;;;9.93;54.95
3796;BME280;1913;50.660;7.834;2023-04-27T06:22:59;97486.69;;;9.99;54.43
3796;BME280;1913;50.660;7.834;2023-04-27T06:25:25;97488.44;;;10.20;55.46
3796;BME280;1913;50.660;7.834;2023-04-27T06:27:56;97487.81;;;10.39;55.27
3796;BME280;1913;50.660;7.834;2023-04-27T06:30:22;97488.66;;;10.46;54.40
3796;BME280;1913;50.660;7.834;2023-04-27T06:32:48;97493.94;;;10.53;51.84
3796;BME280;1913;50.660;7.834;2023-04-27T06:35:15;97491.44;;;10.79;53.83
3796;BME280;1913;50.660;7.834;2023-04-27T06:37:41;97495.09;;;10.85;50.10
3796;BME280;1913;50.660;7.834;2023-04-27T06:40:07;97488.69;;;11.01;50.91
3796;BME280;1913;50.660;7.834;2023-04-27T06:42:33;97496.84;;;11.26;50.87
3796;BME280;1913;50.660;7.834;2023-04-27T06:44:58;97496.03;;;11.25;51.13
3796;BME280;1913;50.660;7.834;2023-04-27T06:47:24;97503.59;;;11.68;49.29
3796;BME280;1913;50.660;7.834;2023-04-27T06:49:49;97498.47;;;11.40;50.24
3796;BME280;1913;50.660;7.834;2023-04-27T06:52:15;97493.41;;;11.25;48.30
3796;BME280;1913;50.660;7.834;2023-04-27T06:54:41;97490.38;;;11.29;50.30
3796;BME280;1913;50.660;7.834;2023-04-27T06:57:06;97497.81;;;11.12;49.39
3796;BME280;1913;50.660;7.834;2023-04-27T06:59:32;97500.91;;;11.35;50.15
3796;BME280;1913;50.660;7.834;2023-04-27T07:01:57;97500.72;;;11.43;48.74
3796;BME280;1913;50.660;7.834;2023-04-27T07:04:23;97495.47;;;11.43;46.58
3796;BME280;1913;50.660;7.834;2023-04-27T07:06:48;97482.94;;;12.05;48.10
3796;BME280;1913;50.660;7.834;2023-04-27T07:09:14;97483.78;;;11.92;47.21
3796;BME280;1913;50.660;7.834;2023-04-27T07:11:39;97496.47;;;11.56;47.13
3796;BME280;1913;50.660;7.834;2023-04-27T07:14:05;97497.63;;;11.20;47.80
3796;BME280;1913;50.660;7.834;2023-04-27T07:16:30;97495.81;;;11.27;47.91
3796;BME280;1913;50.660;7.834;2023-04-27T07:18:55;97493.16;;;11.20;47.25
3796;BME280;1913;50.660;7.834;2023-04-27T07:21:21;97494.22;;;11.33;46.81
3796;BME280;1913;50.660;7.834;2023-04-27T07:23:46;97496.88;;;11.66;47.11
3796;BME280;1913;50.660;7.834;2023-04-27T07:26:12;97500.97;;;11.75;46.28
3796;BME280;1913;50.660;7.834;2023-04-27T07:28:37;97500.00;;;12.03;45.36
3796;BME280;1913;50.660;7.834;2023-04-27T07:31:04;97496.31;;;12.17;47.15
3796;BME280;1913;50.660;7.834;2023-04-27T07:33:31;97493.00;;;12.41;45.06
3796;BME280;1913;50.660;7.834;2023-04-27T07:35:57;97489.78;;;12.39;44.42
3796;BME280;1913;50.660;7.834;2023-04-27T07:38:23;97500.25;;;12.66;44.67
3796;BME280;1913;50.660;7.834;2023-04-27T07:40:48;97497.31;;;12.94;41.86
3796;BME280;1913;50.660;7.834;2023-04-27T07:43:14;97495.94;;;12.91;43.33
3796;BME280;1913;50.660;7.834;2023-04-27T07:45:40;97495.47;;;12.94;43.47
3796;BME280;1913;50.660;7.834;2023-04-27T07:48:06;97485.28;;;13.05;43.05
3796;BME280;1913;50.660;7.834;2023-04-27T07:50:31;97483.03;;;13.08;41.29
3796;BME280;1913;50.660;7.834;2023-04-27T07:52:58;97486.97;;;13.37;40.46
3796;BME280;1913;50.660;7.834;2023-04-27T07:55:24;97498.34;;;13.38;41.51
3796;BME280;1913;50.660;7.834;2023-04-27T07:57:54;97479.34;;;13.54;41.06
3796;BME280;1913;50.660;7.834;2023-04-27T08:00:20;97475.75;;;13.49;41.15
3796;BME280;1913;50.660;7.834;2023-04-27T08:02:46;97477.44;;;13.36;40.68
3796;BME280;1913;50.660;7.834;2023-04-27T08:05:12;97484.63;;;13.54;40.20
3796;BME280;1913;50.660;7.834;2023-04-27T08:07:38;97476.91;;;13.84;40.83
3796;BME280;1913;50.660;7.834;2023-04-27T08:10:04;97477.00;;;13.96;40.17
3796;BME280;1913;50.660;7.834;2023-04-27T08:12:31;97466.66;;;14.38;38.42
3796;BME280;1913;50.660;7.834;2023-04-27T08:14:57;97463.09;;;14.69;39.77
3796;BME280;1913;50.660;7.834;2023-04-27T08:17:22;97475.16;;;14.40;38.46
3796;BME280;1913;50.660;7.834;2023-04-27T08:19:48;97472.13;;;14.36;38.81
3796;BME280;1913;50.660;7.834;2023-04-27T08:22:13;97477.59;;;14.42;38.39
3796;BME280;1913;50.660;7.834;2023-04-27T08:24:39;97480.91;;;14.12;36.90
3796;BME280;1913;50.660;7.834;2023-04-27T08:27:05;97484.25;;;14.26;38.70
3796;BME280;1913;50.660;7.834;2023-04-27T08:29:31;97483.09;;;14.95;38.32
3796;BME280;1913;50.660;7.834;2023-04-27T08:31:58;97487.81;;;14.75;38.33
3796;BME280;1913;50.660;7.834;2023-04-27T08:34:24;97482.75;;;15.52;37.73
3796;BME280;1913;50.660;7.834;2023-04-27T08:36:50;97480.19;;;16.11;35.63
3796;BME280;1913;50.660;7.834;2023-04-27T08:39:16;97484.81;;;15.62;35.49
3796;BME280;1913;50.660;7.834;2023-04-27T08:41:42;97485.50;;;16.11;34.22
3796;BME280;1913;50.660;7.834;2023-04-27T08:44:08;97481.41;;;16.67;34.14
3796;BME280;1913;50.660;7.834;2023-04-27T08:46:36;97486.06;;;17.12;32.81
3796;BME280;1913;50.660;7.834;2023-04-27T08:49:01;97479.63;;;17.36;33.84
3796;BME280;1913;50.660;7.834;2023-04-27T08:51:27;97472.16;;;16.93;35.71
3796;BME280;1913;50.660;7.834;2023-04-27T08:53:54;97475.13;;;16.96;33.14
3796;BME280;1913;50.660;7.834;2023-04-27T08:56:22;97473.19;;;16.92;33.40
3796;BME280;1913;50.660;7.834;2023-04-27T08:58:49;97478.47;;;17.04;32.45
3796;BME280;1913;50.660;7.834;2023-04-27T09:01:15;97476.47;;;17.85;32.51
3796;BME280;1913;50.660;7.834;2023-04-27T09:03:41;97472.47;;;17.82;33.67
3796;BME280;1913;50.660;7.834;2023-04-27T09:06:07;97470.44;;;17.89;31.97
3796;BME280;1913;50.660;7.834;2023-04-27T09:08:44;97475.22;;;17.59;32.95
3796;BME280;1913;50.660;7.834;2023-04-27T09:11:11;97467.13;;;17.37;32.21
3796;BME280;1913;50.660;7.834;2023-04-27T09:13:39;97476.41;;;17.68;30.85
3796;BME280;1913;50.660;7.834;2023-04-27T09:16:05;97471.06;;;17.80;32.40
3796;BME280;1913;50.660;7.834;2023-04-27T09:18:31;97468.84;;;17.60;32.50
3796;BME280;1913;50.660;7.834;2023-04-27T09:20:59;97467.69;;;17.39;33.74
3796;BME280;1913;50.660;7.834;2023-04-27T09:23:27;97468.47;;;16.94;32.82
3796;BME280;1913;50.660;7.834;2023-04-27T09:25:53;97453.66;;;15.75;35.32
3796;BME280;1913;50.660;7.834;2023-04-27T09:28:21;97464.66;;;15.19;34.59
3796;BME280;1913;50.660;7.834;2023-04-27T09:30:54;97456.47;;;15.50;34.24
3796;BME280;1913;50.660;7.834;2023-04-27T09:35:52;97452.88;;;16.22;35.28
3796;BME280;1913;50.660;7.834;2023-04-27T09:38:19;97444.59;;;16.07;35.30
3796;BME280;1913;50.660;7.834;2023-04-27T09:40:46;97446.19;;;16.08;34.37
3796;BME280;1913;50.660;7.834;2023-04-27T09:43:11;97444.81;;;16.92;34.04
3796;BME280;1913;50.660;7.834;2023-04-27T09:45:38;97441.47;;;16.85;32.72
3796;BME280;1913;50.660;7.834;2023-04-27T09:48:04;97438.50;;;16.82;33.19
3796;BME280;1913;50.660;7.834;2023-04-27T09:50:34;97433.41;;;18.22;33.03
3796;BME280;1913;50.660;7.834;2023-04-27T09:53:01;97446.13;;;18.58;31.42
3796;BME280;1913;50.660;7.834;2023-04-27T09:55:32;97447.75;;;18.21;30.28
3796;BME280;1913;50.660;7.834;2023-04-27T10:03:25;97445.56;;;19.54;33.24
3796;BME280;1913;50.660;7.834;2023-04-27T10:08:35;97442.03;;;21.44;30.45
3796;BME280;1913;50.660;7.834;2023-04-27T10:11:00;97437.22;;;21.66;27.01
3796;BME280;1913;50.660;7.834;2023-04-27T10:13:36;97434.84;;;21.49;28.38
3796;BME280;1913;50.660;7.834;2023-04-27T10:16:14;97437.38;;;19.61;27.95
3796;BME280;1913;50.660;7.834;2023-04-27T10:18:50;97441.25;;;19.48;29.26
3796;BME280;1913;50.660;7.834;2023-04-27T10:21:16;97434.78;;;19.66;30.40
3796;BME280;1913;50.660;7.834;2023-04-27T10:23:46;97431.06;;;20.09;30.48
3796;BME280;1913;50.660;7.834;2023-04-27T10:26:21;97436.38;;;19.13;30.46
3796;BME280;1913;50.660;7.834;2023-04-27T10:28:55;97429.66;;;19.05;30.57
3796;BME280;1913;50.660;7.834;2023-04-27T10:31:26;97425.31;;;17.15;32.37
3796;BME280;1913;50.660;7.834;2023-04-27T10:33:53;97423.22;;;17.17;32.86
3796;BME280;1913;50.660;7.834;2023-04-27T10:36:36;97426.63;;;16.61;32.85
3796;BME280;1913;50.660;7.834;2023-04-27T10:39:02;97419.25;;;16.74;35.84
3796;BME280;1913;50.660;7.834;2023-04-27T10:41:35;97419.97;;;16.98;34.36
3796;BME280;1913;50.660;7.834;2023-04-27T10:44:18;97421.53;;;16.71;33.84
3796;BME280;1913;50.660;7.834;2023-04-27T10:46:52;97426.22;;;17.21;35.25
3796;BME280;1913;50.660;7.834;2023-04-27T10:49:17;97415.91;;;17.24;34.25
3796;BME280;1913;50.660;7.834;2023-04-27T10:51:43;97416.13;;;17.85;34.11
3796;BME280;1913;50.660;7.834;2023-04-27T10:54:08;97415.97;;;17.92;33.26
3796;BME280;1913;50.660;7.834;2023-04-27T10:56:34;97410.41;;;17.93;32.25
3796;BME280;1913;50.660;7.834;2023-04-27T10:59:03;97407.09;;;16.90;32.43
3796;BME280;1913;50.660;7.834;2023-04-27T11:01:29;97418.28;;;17.88;32.10
3796;BME280;1913;50.660;7.834;2023-04-27T11:03:56;97410.22;;;17.66;34.38
3796;BME280;1913;50.660;7.834;2023-04-27T11:06:22;97406.69;;;18.11;31.45
3796;BME280;1913;50.660;7.834;2023-04-27T11:08:47;97402.50;;;17.65;33.49
3796;BME280;1913;50.660;7.834;2023-04-27T11:11:14;97400.13;;;17.01;33.34
3796;BME280;1913;50.660;7.834;2023-04-27T11:13:42;97405.03;;;16.81;34.46
3796;BME280;1913;50.660;7.834;2023-04-27T11:16:08;97406.84;;;16.92;33.82
3796;BME280;1913;50.660;7.834;2023-04-27T11:18:36;97397.31;;;16.67;34.57
3796;BME280;1913;50.660;7.834;2023-04-27T11:21:11;97394.16;;;16.42;34.26
3796;BME280;1913;50.660;7.834;2023-04-27T11:23:38;97391.69;;;16.64;34.62
3796;BME280;1913;50.660;7.834;2023-04-27T11:26:15;97384.28;;;16.25;34.77
3796;BME280;1913;50.660;7.834;2023-04-27T11:28:43;97383.75;;;16.52;35.99
3796;BME280;1913;50.660;7.834;2023-04-27T11:31:08;97389.50;;;16.61;37.80
3796;BME280;1913;50.660;7.834;2023-04-27T11:33:34;97394.19;;;16.70;34.80
3796;BME280;1913;50.660;7.834;2023-04-27T11:35:59;97389.38;;;16.96;34.81
3796;BME280;1913;50.660;7.834;2023-04-27T11:38:25;97390.84;;;16.75;34.10
3796;BME280;1913;50.660;7.834;2023-04-27T11:41:05;97389.69;;;17.28;33.82
3796;BME280;1913;50.660;7.834;2023-04-27T11:43:31;97385.44;;;17.44;34.44
3796;BME280;1913;50.660;7.834;2023-04-27T11:46:00;97392.66;;;17.99;36.36
3796;BME280;1913;50.660;7.834;2023-04-27T11:48:27;97386.69;;;18.53;33.67
3796;BME280;1913;50.660;7.834;2023-04-27T11:50:56;97371.66;;;19.45;33.27
3796;BME280;1913;50.660;7.834;2023-04-27T11:53:30;97379.78;;;19.92;33.33
3796;BME280;1913;50.660;7.834;2023-04-27T11:55:59;97375.03;;;20.04;31.19
3796;BME280;1913;50.660;7.834;2023-04-27T11:58:27;97375.91;;;20.20;30.82
3796;BME280;1913;50.660;7.834;2023-04-27T12:00:55;97378.09;;;20.28;31.88
3796;BME280;1913;50.660;7.834;2023-04-27T12:03:21;97377.19;;;19.65;29.87
3796;BME280;1913;50.660;7.834;2023-04-27T12:05:50;97379.13;;;19.43;31.69
3796;BME280;1913;50.660;7.834;2023-04-27T12:08:17;97374.22;;;19.29;31.64
3796;BME280;1913;50.660;7.834;2023-04-27T12:10:43;97377.38;;;19.26;33.13
3796;BME280;1913;50.660;7.834;2023-04-27T12:13:08;97381.78;;;19.10;33.23
3796;BME280;1913;50.660;7.834;2023-04-27T12:15:34;97376.75;;;19.14;32.44
3796;BME280;1913;50.660;7.834;2023-04-27T12:17:59;97369.56;;;19.14;32.25
3796;BME280;1913;50.660;7.834;2023-04-27T12:20:25;97369.50;;;18.82;32.88
3796;BME280;1913;50.660;7.834;2023-04-27T12:22:51;97369.19;;;19.06;32.18
3796;BME280;1913;50.660;7.834;2023-04-27T12:25:16;97371.13;;;18.83;33.27
3796;BME280;1913;50.660;7.834;2023-04-27T12:27:43;97365.78;;;18.61;32.88
3796;BME280;1913;50.660;7.834;2023-04-27T12:30:12;97367.47;;;18.24;33.36
3796;BME280;1913;50.660;7.834;2023-04-27T12:32:38;97363.19;;;18.01;33.13
3796;BME280;1913;50.660;7.834;2023-04-27T12:35:05;97355.88;;;17.91;33.39
3796;BME280;1913;50.660;7.834;2023-04-27T12:37:30;97360.06;;;17.53;33.68
3796;BME280;1913;50.660;7.834;2023-04-27T12:39:56;97356.78;;;17.29;34.51
3796;BME280;1913;50.660;7.834;2023-04-27T12:42:22;97356.66;;;16.90;35.05
3796;BME280;1913;50.660;7.834;2023-04-27T12:44:49;97352.03;;;16.86;34.45
3796;BME280;1913;50.660;7.834;2023-04-27T12:47:16;97348.00;;;17.45;34.23
3796;BME280;1913;50.660;7.834;2023-04-27T12:49:42;97359.03;;;17.54;32.73
3796;BME280;1913;50.660;7.834;2023-04-27T12:52:08;97349.28;;;18.37;34.58
3796;BME280;1913;50.660;7.834;2023-04-27T12:54:34;97347.78;;;19.23;33.81
3796;BME280;1913;50.660;7.834;2023-04-27T12:57:01;97342.53;;;19.65;32.50
3796;BME280;1913;50.660;7.834;2023-04-27T12:59:28;97342.75;;;20.01;30.73
3796;BME280;1913;50.660;7.834;2023-04-27T13:01:54;97341.47;;;20.14;32.88
3796;BME280;1913;50.660;7.834;2023-04-27T13:04:19;97341.28;;;19.46;30.32
3796;BME280;1913;50.660;7.834;2023-04-27T13:06:45;97342.06;;;18.60;30.37
3796;BME280;1913;50.660;7.834;2023-04-27T13:09:11;97340.56;;;18.20;31.11
3796;BME280;1913;50.660;7.834;2023-04-27T13:11:37;97346.09;;;18.62;31.07
3796;BME280;1913;50.660;7.834;2023-04-27T13:14:02;97342.94;;;19.20;31.05
3796;BME280;1913;50.660;7.834;2023-04-27T13:16:29;97338.16;;;19.91;32.51
3796;BME280;1913;50.660;7.834;2023-04-27T13:18:57;97336.81;;;19.51;30.58
3796;BME280;1913;50.660;7.834;2023-04-27T13:21:26;97338.88;;;19.44;32.38
3796;BME280;1913;50.660;7.834;2023-04-27T13:23:53;97343.53;;;19.27;32.26
3796;BME280;1913;50.660;7.834;2023-04-27T13:26:19;97337.56;;;19.79;32.30
3796;BME280;1913;50.660;7.834;2023-04-27T13:28:45;97332.50;;;20.40;30.78